sensor_id;sensor_type;location;lat;lon;timestamp;P1;durP1;ratioP1;P2;durP2;ratioP2
68168;SDS011;54981;50.206;15.978;2023-05-09T00:00:21;23.77;;;21.55;;
68168;SDS011;54981;50.206;15.978;2023-05-09T00:02:52;26.30;;;24.02;;
68168;SDS011;54981;50.206;15.978;2023-05-09T00:05:23;23.58;;;21.67;;
68168;SDS011;54981;50.206;15.978;2023-05-09T00:07:53;20.58;;;18.88;;
68168;SDS011;54981;50.206;15.978;2023-05-09T00:10:25;20.85;;;18.70;;
68168;SDS011;54981;50.206;15.978;2023-05-09T00:12:56;24.02;;;22.00;;
68168;SDS011;54981;50.206;15.978;2023-05-09T00:15:27;20.98;;;18.98;;
68168;SDS011;54981;50.206;15.978;2023-05-09T00:17:59;19.67;;;18.00;;
68168;SDS011;54981;50.206;15.978;2023-05-09T00:20:30;20.67;;;18.80;;
68168;SDS011;54981;50.206;15.978;2023-05-09T00:23:03;20.92;;;19.13;;
68168;SDS011;54981;50.206;15.978;2023-05-09T00:25:34;20.35;;;18.67;;
68168;SDS011;54981;50.206;15.978;2023-05-09T00:28:04;22.98;;;21.17;;
68168;SDS011;54981;50.206;15.978;2023-05-09T00:30:38;19.17;;;17.55;;
68168;SDS011;54981;50.206;15.978;2023-05-09T00:33:08;20.67;;;18.88;;
68168;SDS011;54981;50.206;15.978;2023-05-09T00:35:39;23.73;;;21.80;;
68168;SDS011;54981;50.206;15.978;2023-05-09T00:38:10;18.60;;;17.00;;
68168;SDS011;54981;50.206;15.978;2023-05-09T00:40:40;20.73;;;19.10;;
68168;SDS011;54981;50.206;15.978;2023-05-09T00:43:10;19.83;;;17.95;;
68168;SDS011;54981;50.206;15.978;2023-05-09T00:45:48;19.27;;;17.63;;
68168;SDS011;54981;50.206;15.978;2023-05-09T00:50:50;18.35;;;16.85;;
68168;SDS011;54981;50.206;15.978;2023-05-09T00:53:21;19.48;;;17.63;;
68168;SDS011;54981;50.206;15.978;2023-05-09T00:55:54;19.38;;;17.77;;
68168;SDS011;54981;50.206;15.978;2023-05-09T00:58:26;19.65;;;18.02;;
68168;SDS011;54981;50.206;15.978;2023-05-09T01:00:58;20.27;;;18.42;;
68168;SDS011;54981;50.206;15.978;2023-05-09T01:03:31;19.38;;;17.58;;
68168;SDS011;54981;50.206;15.978;2023-05-09T01:06:02;21.85;;;18.05;;
68168;SDS011;54981;50.206;15.978;2023-05-09T01:11:28;23.65;;;21.75;;
68168;SDS011;54981;50.206;15.978;2023-05-09T01:22:42;19.05;;;17.42;;
68168;SDS011;54981;50.206;15.978;2023-05-09T01:28:36;23.65;;;21.65;;
68168;SDS011;54981;50.206;15.978;2023-05-09T01:31:09;22.08;;;19.98;;
68168;SDS011;54981;50.206;15.978;2023-05-09T01:33:40;21.55;;;19.55;;
68168;SDS011;54981;50.206;15.978;2023-05-09T01:36:16;20.02;;;18.25;;
68168;SDS011;54981;50.206;15.978;2023-05-09T01:38:50;22.63;;;20.63;;
68168;SDS011;54981;50.206;15.978;2023-05-09T01:41:21;20.38;;;18.67;;
68168;SDS011;54981;50.206;15.978;2023-05-09T01:43:54;21.37;;;19.53;;
68168;SDS011;54981;50.206;15.978;2023-05-09T01:46:27;20.95;;;19.20;;
68168;SDS011;54981;50.206;15.978;2023-05-09T01:48:58;19.20;;;17.60;;
68168;SDS011;54981;50.206;15.978;2023-05-09T01:51:31;21.35;;;19.58;;
68168;SDS011;54981;50.206;15.978;2023-05-09T01:54:03;21.88;;;19.95;;
68168;SDS011;54981;50.206;15.978;2023-05-09T01:56:35;22.73;;;20.88;;
68168;SDS011;54981;50.206;15.978;2023-05-09T01:59:07;20.35;;;18.65;;
68168;SDS011;54981;50.206;15.978;2023-05-09T02:01:44;24.58;;;17.83;;
68168;SDS011;54981;50.206;15.978;2023-05-09T02:04:16;21.10;;;19.33;;
68168;SDS011;54981;50.206;15.978;2023-05-09T02:06:48;21.50;;;19.70;;
68168;SDS011;54981;50.206;15.978;2023-05-09T02:09:20;22.33;;;20.33;;
68168;SDS011;54981;50.206;15.978;2023-05-09T02:11:51;18.40;;;16.88;;
68168;SDS011;54981;50.206;15.978;2023-05-09T02:14:22;21.50;;;19.50;;
68168;SDS011;54981;50.206;15.978;2023-05-09T02:16:53;19.85;;;18.15;;
68168;SDS011;54981;50.206;15.978;2023-05-09T02:19:23;20.63;;;19.02;;
68168;SDS011;54981;50.206;15.978;2023-05-09T02:21:53;20.13;;;18.35;;
68168;SDS011;54981;50.206;15.978;2023-05-09T02:24:24;20.85;;;19.08;;
68168;SDS011;54981;50.206;15.978;2023-05-09T02:26:54;21.55;;;19.77;;
68168;SDS011;54981;50.206;15.978;2023-05-09T02:29:26;20.15;;;18.55;;
68168;SDS011;54981;50.206;15.978;2023-05-09T02:32:01;19.17;;;17.35;;
68168;SDS011;54981;50.206;15.978;2023-05-09T02:34:33;21.08;;;19.38;;
68168;SDS011;54981;50.206;15.978;2023-05-09T02:37:05;19.83;;;18.02;;
68168;SDS011;54981;50.206;15.978;2023-05-09T02:39:36;20.42;;;18.70;;
68168;SDS011;54981;50.206;15.978;2023-05-09T02:42:08;20.83;;;18.83;;
68168;SDS011;54981;50.206;15.978;2023-05-09T02:44:40;20.23;;;18.58;;
68168;SDS011;54981;50.206;15.978;2023-05-09T02:47:10;19.92;;;18.33;;
68168;SDS011;54981;50.206;15.978;2023-05-09T02:49:40;20.67;;;18.65;;
68168;SDS011;54981;50.206;15.978;2023-05-09T02:52:11;21.52;;;19.73;;
68168;SDS011;54981;50.206;15.978;2023-05-09T02:54:41;22.15;;;20.05;;
68168;SDS011;54981;50.206;15.978;2023-05-09T02:57:12;23.38;;;21.35;;
68168;SDS011;54981;50.206;15.978;2023-05-09T02:59:42;23.52;;;21.45;;
68168;SDS011;54981;50.206;15.978;2023-05-09T03:02:12;21.98;;;20.10;;
68168;SDS011;54981;50.206;15.978;2023-05-09T03:04:43;21.65;;;19.70;;
68168;SDS011;54981;50.206;15.978;2023-05-09T03:07:13;21.23;;;19.38;;
68168;SDS011;54981;50.206;15.978;2023-05-09T03:09:44;21.38;;;19.42;;
68168;SDS011;54981;50.206;15.978;2023-05-09T03:12:14;21.45;;;19.55;;
68168;SDS011;54981;50.206;15.978;2023-05-09T03:14:45;21.38;;;19.50;;
68168;SDS011;54981;50.206;15.978;2023-05-09T03:17:15;20.35;;;18.73;;
68168;SDS011;54981;50.206;15.978;2023-05-09T03:19:50;20.27;;;18.17;;
68168;SDS011;54981;50.206;15.978;2023-05-09T03:22:20;21.40;;;19.63;;
68168;SDS011;54981;50.206;15.978;2023-05-09T03:24:50;21.58;;;19.40;;
68168;SDS011;54981;50.206;15.978;2023-05-09T03:27:21;21.75;;;19.73;;
68168;SDS011;54981;50.206;15.978;2023-05-09T03:29:51;20.90;;;17.42;;
68168;SDS011;54981;50.206;15.978;2023-05-09T03:32:22;21.42;;;19.65;;
68168;SDS011;54981;50.206;15.978;2023-05-09T03:34:53;19.73;;;18.02;;
68168;SDS011;54981;50.206;15.978;2023-05-09T03:37:23;19.70;;;18.05;;
68168;SDS011;54981;50.206;15.978;2023-05-09T03:39:54;20.02;;;18.30;;
68168;SDS011;54981;50.206;15.978;2023-05-09T03:42:24;19.58;;;17.88;;
68168;SDS011;54981;50.206;15.978;2023-05-09T03:44:54;20.95;;;19.35;;
68168;SDS011;54981;50.206;15.978;2023-05-09T03:47:25;21.10;;;19.10;;
68168;SDS011;54981;50.206;15.978;2023-05-09T03:49:55;20.23;;;18.38;;
68168;SDS011;54981;50.206;15.978;2023-05-09T03:52:25;20.38;;;18.63;;
68168;SDS011;54981;50.206;15.978;2023-05-09T03:54:56;19.48;;;17.58;;
68168;SDS011;54981;50.206;15.978;2023-05-09T03:57:26;19.35;;;17.67;;
68168;SDS011;54981;50.206;15.978;2023-05-09T03:59:56;20.88;;;18.40;;
68168;SDS011;54981;50.206;15.978;2023-05-09T04:02:27;20.17;;;18.42;;
68168;SDS011;54981;50.206;15.978;2023-05-09T04:04:57;21.65;;;19.75;;
68168;SDS011;54981;50.206;15.978;2023-05-09T04:07:27;21.02;;;19.00;;
68168;SDS011;54981;50.206;15.978;2023-05-09T04:09:58;22.15;;;20.10;;
68168;SDS011;54981;50.206;15.978;2023-05-09T04:12:29;20.15;;;18.30;;
68168;SDS011;54981;50.206;15.978;2023-05-09T04:14:59;22.73;;;20.80;;
68168;SDS011;54981;50.206;15.978;2023-05-09T04:17:30;22.70;;;20.40;;
68168;SDS011;54981;50.206;15.978;2023-05-09T04:20:00;20.52;;;18.63;;
68168;SDS011;54981;50.206;15.978;2023-05-09T04:22:31;23.73;;;21.63;;
68168;SDS011;54981;50.206;15.978;2023-05-09T04:25:01;25.40;;;22.80;;
68168;SDS011;54981;50.206;15.978;2023-05-09T04:27:33;23.08;;;20.88;;
68168;SDS011;54981;50.206;15.978;2023-05-09T04:30:03;24.42;;;22.33;;
68168;SDS011;54981;50.206;15.978;2023-05-09T04:32:35;24.23;;;21.80;;
68168;SDS011;54981;50.206;15.978;2023-05-09T04:35:05;26.20;;;21.42;;
68168;SDS011;54981;50.206;15.978;2023-05-09T04:37:37;23.50;;;21.00;;
68168;SDS011;54981;50.206;15.978;2023-05-09T04:40:07;25.20;;;22.60;;
68168;SDS011;54981;50.206;15.978;2023-05-09T04:42:38;24.27;;;21.95;;
68168;SDS011;54981;50.206;15.978;2023-05-09T04:45:09;28.00;;;25.50;;
68168;SDS011;54981;50.206;15.978;2023-05-09T04:47:40;25.02;;;22.58;;
68168;SDS011;54981;50.206;15.978;2023-05-09T04:50:11;25.65;;;23.17;;
68168;SDS011;54981;50.206;15.978;2023-05-09T04:52:41;28.40;;;25.92;;
68168;SDS011;54981;50.206;15.978;2023-05-09T04:55:11;25.67;;;23.25;;
68168;SDS011;54981;50.206;15.978;2023-05-09T04:57:42;24.23;;;22.02;;
68168;SDS011;54981;50.206;15.978;2023-05-09T05:00:12;24.83;;;22.70;;
68168;SDS011;54981;50.206;15.978;2023-05-09T05:02:43;24.02;;;22.13;;
68168;SDS011;54981;50.206;15.978;2023-05-09T05:05:14;22.73;;;20.73;;
68168;SDS011;54981;50.206;15.978;2023-05-09T05:07:44;21.33;;;19.42;;
68168;SDS011;54981;50.206;15.978;2023-05-09T05:10:15;23.13;;;21.00;;
68168;SDS011;54981;50.206;15.978;2023-05-09T05:12:45;21.65;;;19.95;;
68168;SDS011;54981;50.206;15.978;2023-05-09T05:15:16;23.23;;;21.17;;
68168;SDS011;54981;50.206;15.978;2023-05-09T05:17:48;22.02;;;20.13;;
68168;SDS011;54981;50.206;15.978;2023-05-09T05:20:18;22.98;;;20.98;;
68168;SDS011;54981;50.206;15.978;2023-05-09T05:22:49;22.15;;;20.05;;
68168;SDS011;54981;50.206;15.978;2023-05-09T05:25:19;21.08;;;19.30;;
68168;SDS011;54981;50.206;15.978;2023-05-09T05:27:50;22.15;;;20.25;;
68168;SDS011;54981;50.206;15.978;2023-05-09T05:30:20;20.77;;;18.00;;
68168;SDS011;54981;50.206;15.978;2023-05-09T05:32:50;19.17;;;17.40;;
68168;SDS011;54981;50.206;15.978;2023-05-09T05:35:21;18.52;;;16.73;;
68168;SDS011;54981;50.206;15.978;2023-05-09T05:37:52;18.38;;;16.60;;
68168;SDS011;54981;50.206;15.978;2023-05-09T05:40:22;17.75;;;16.25;;
68168;SDS011;54981;50.206;15.978;2023-05-09T05:42:53;17.30;;;15.82;;
68168;SDS011;54981;50.206;15.978;2023-05-09T05:45:23;17.05;;;15.57;;
68168;SDS011;54981;50.206;15.978;2023-05-09T05:47:54;18.38;;;16.88;;
68168;SDS011;54981;50.206;15.978;2023-05-09T05:50:25;15.60;;;14.30;;
68168;SDS011;54981;50.206;15.978;2023-05-09T05:52:55;15.05;;;13.75;;
68168;SDS011;54981;50.206;15.978;2023-05-09T05:55:25;17.10;;;15.30;;
68168;SDS011;54981;50.206;15.978;2023-05-09T05:57:56;15.85;;;14.35;;
68168;SDS011;54981;50.206;15.978;2023-05-09T06:00:26;16.13;;;14.57;;
68168;SDS011;54981;50.206;15.978;2023-05-09T06:02:57;15.90;;;14.60;;
68168;SDS011;54981;50.206;15.978;2023-05-09T06:05:27;14.68;;;13.38;;
68168;SDS011;54981;50.206;15.978;2023-05-09T06:07:58;15.50;;;14.05;;
68168;SDS011;54981;50.206;15.978;2023-05-09T06:10:28;15.48;;;13.90;;
68168;SDS011;54981;50.206;15.978;2023-05-09T06:12:58;16.27;;;14.70;;
68168;SDS011;54981;50.206;15.978;2023-05-09T06:15:29;15.68;;;13.35;;
68168;SDS011;54981;50.206;15.978;2023-05-09T06:17:59;15.18;;;13.88;;
68168;SDS011;54981;50.206;15.978;2023-05-09T06:20:30;16.02;;;14.43;;
68168;SDS011;54981;50.206;15.978;2023-05-09T06:23:01;16.67;;;13.48;;
68168;SDS011;54981;50.206;15.978;2023-05-09T06:25:31;16.23;;;14.88;;
68168;SDS011;54981;50.206;15.978;2023-05-09T06:28:01;15.40;;;14.07;;
68168;SDS011;54981;50.206;15.978;2023-05-09T06:30:32;15.25;;;13.95;;
68168;SDS011;54981;50.206;15.978;2023-05-09T06:33:02;14.90;;;13.80;;
68168;SDS011;54981;50.206;15.978;2023-05-09T06:35:33;15.35;;;14.02;;
68168;SDS011;54981;50.206;15.978;2023-05-09T06:38:03;15.43;;;13.90;;
68168;SDS011;54981;50.206;15.978;2023-05-09T06:40:34;13.60;;;12.07;;
68168;SDS011;54981;50.206;15.978;2023-05-09T06:43:04;13.00;;;11.75;;
68168;SDS011;54981;50.206;15.978;2023-05-09T06:45:34;13.75;;;12.48;;
68168;SDS011;54981;50.206;15.978;2023-05-09T06:48:05;12.88;;;11.73;;
68168;SDS011;54981;50.206;15.978;2023-05-09T06:50:35;12.68;;;11.38;;
68168;SDS011;54981;50.206;15.978;2023-05-09T06:53:06;11.82;;;10.82;;
68168;SDS011;54981;50.206;15.978;2023-05-09T06:55:36;13.88;;;10.52;;
68168;SDS011;54981;50.206;15.978;2023-05-09T06:58:06;11.52;;;10.05;;
68168;SDS011;54981;50.206;15.978;2023-05-09T07:00:37;10.35;;;9.35;;
68168;SDS011;54981;50.206;15.978;2023-05-09T07:03:07;9.63;;;8.73;;
68168;SDS011;54981;50.206;15.978;2023-05-09T07:05:38;10.52;;;7.72;;
68168;SDS011;54981;50.206;15.978;2023-05-09T07:08:08;10.23;;;8.77;;
68168;SDS011;54981;50.206;15.978;2023-05-09T07:10:38;9.75;;;8.40;;
68168;SDS011;54981;50.206;15.978;2023-05-09T07:13:09;8.70;;;7.90;;
68168;SDS011;54981;50.206;15.978;2023-05-09T07:15:39;9.68;;;8.68;;
68168;SDS011;54981;50.206;15.978;2023-05-09T07:18:10;9.23;;;8.27;;
68168;SDS011;54981;50.206;15.978;2023-05-09T07:20:40;9.93;;;8.63;;
68168;SDS011;54981;50.206;15.978;2023-05-09T07:23:10;9.20;;;8.40;;
68168;SDS011;54981;50.206;15.978;2023-05-09T07:25:41;10.68;;;8.80;;
68168;SDS011;54981;50.206;15.978;2023-05-09T07:28:12;9.43;;;8.52;;
68168;SDS011;54981;50.206;15.978;2023-05-09T07:30:43;10.52;;;9.55;;
68168;SDS011;54981;50.206;15.978;2023-05-09T07:33:13;10.35;;;9.32;;
68168;SDS011;54981;50.206;15.978;2023-05-09T07:35:43;11.45;;;9.48;;
68168;SDS011;54981;50.206;15.978;2023-05-09T07:38:14;11.70;;;9.57;;
68168;SDS011;54981;50.206;15.978;2023-05-09T07:40:44;10.48;;;9.48;;
68168;SDS011;54981;50.206;15.978;2023-05-09T07:43:14;11.70;;;10.60;;
68168;SDS011;54981;50.206;15.978;2023-05-09T07:45:45;9.93;;;8.98;;
68168;SDS011;54981;50.206;15.978;2023-05-09T07:48:16;11.48;;;9.52;;
68168;SDS011;54981;50.206;15.978;2023-05-09T07:50:46;9.73;;;8.73;;
68168;SDS011;54981;50.206;15.978;2023-05-09T07:53:16;10.38;;;9.40;;
68168;SDS011;54981;50.206;15.978;2023-05-09T07:55:47;10.82;;;9.73;;
68168;SDS011;54981;50.206;15.978;2023-05-09T07:58:19;9.88;;;8.98;;
68168;SDS011;54981;50.206;15.978;2023-05-09T08:00:49;10.93;;;9.93;;
68168;SDS011;54981;50.206;15.978;2023-05-09T08:03:19;9.82;;;8.93;;
68168;SDS011;54981;50.206;15.978;2023-05-09T08:05:53;10.07;;;9.07;;
68168;SDS011;54981;50.206;15.978;2023-05-09T08:08:26;10.23;;;9.23;;
68168;SDS011;54981;50.206;15.978;2023-05-09T08:10:57;10.50;;;9.50;;
68168;SDS011;54981;50.206;15.978;2023-05-09T08:13:27;9.40;;;8.43;;
68168;SDS011;54981;50.206;15.978;2023-05-09T08:15:59;10.15;;;9.20;;
68168;SDS011;54981;50.206;15.978;2023-05-09T08:18:30;11.45;;;9.40;;
68168;SDS011;54981;50.206;15.978;2023-05-09T08:21:00;13.15;;;9.60;;
68168;SDS011;54981;50.206;15.978;2023-05-09T08:23:31;9.98;;;8.82;;
68168;SDS011;54981;50.206;15.978;2023-05-09T08:26:01;9.90;;;8.68;;
68168;SDS011;54981;50.206;15.978;2023-05-09T08:28:31;10.07;;;9.00;;
68168;SDS011;54981;50.206;15.978;2023-05-09T08:31:02;9.85;;;8.95;;
68168;SDS011;54981;50.206;15.978;2023-05-09T08:33:33;10.80;;;9.13;;
68168;SDS011;54981;50.206;15.978;2023-05-09T08:36:03;10.10;;;9.07;;
68168;SDS011;54981;50.206;15.978;2023-05-09T08:38:34;10.00;;;9.00;;
68168;SDS011;54981;50.206;15.978;2023-05-09T08:41:05;11.38;;;9.55;;
68168;SDS011;54981;50.206;15.978;2023-05-09T08:43:35;11.00;;;7.85;;
68168;SDS011;54981;50.206;15.978;2023-05-09T08:46:08;9.98;;;8.90;;
68168;SDS011;54981;50.206;15.978;2023-05-09T08:48:39;11.30;;;8.32;;
68168;SDS011;54981;50.206;15.978;2023-05-09T08:51:12;10.38;;;9.38;;
68168;SDS011;54981;50.206;15.978;2023-05-09T08:53:45;10.17;;;9.10;;
68168;SDS011;54981;50.206;15.978;2023-05-09T08:56:15;11.50;;;9.15;;
68168;SDS011;54981;50.206;15.978;2023-05-09T08:58:46;13.45;;;9.82;;
68168;SDS011;54981;50.206;15.978;2023-05-09T09:01:16;21.25;;;9.07;;
68168;SDS011;54981;50.206;15.978;2023-05-09T09:03:48;16.02;;;8.48;;
68168;SDS011;54981;50.206;15.978;2023-05-09T09:06:18;11.60;;;9.73;;
68168;SDS011;54981;50.206;15.978;2023-05-09T09:08:51;10.13;;;9.02;;
68168;SDS011;54981;50.206;15.978;2023-05-09T09:11:24;10.55;;;8.60;;
68168;SDS011;54981;50.206;15.978;2023-05-09T09:13:55;12.05;;;8.60;;
68168;SDS011;54981;50.206;15.978;2023-05-09T09:16:31;11.10;;;9.00;;
68168;SDS011;54981;50.206;15.978;2023-05-09T09:19:04;9.05;;;8.23;;
68168;SDS011;54981;50.206;15.978;2023-05-09T09:21:40;9.27;;;7.75;;
68168;SDS011;54981;50.206;15.978;2023-05-09T09:24:12;9.77;;;8.77;;
68168;SDS011;54981;50.206;15.978;2023-05-09T09:26:47;12.80;;;8.73;;
68168;SDS011;54981;50.206;15.978;2023-05-09T09:29:18;9.75;;;8.50;;
68168;SDS011;54981;50.206;15.978;2023-05-09T09:34:23;11.63;;;7.63;;
68168;SDS011;54981;50.206;15.978;2023-05-09T09:36:54;10.02;;;7.95;;
68168;SDS011;54981;50.206;15.978;2023-05-09T09:39:24;10.07;;;8.55;;
68168;SDS011;54981;50.206;15.978;2023-05-09T09:41:55;9.75;;;8.48;;
68168;SDS011;54981;50.206;15.978;2023-05-09T09:44:25;10.15;;;8.65;;
68168;SDS011;54981;50.206;15.978;2023-05-09T09:46:56;9.68;;;8.68;;
68168;SDS011;54981;50.206;15.978;2023-05-09T09:49:27;11.05;;;8.82;;
68168;SDS011;54981;50.206;15.978;2023-05-09T09:51:57;10.35;;;8.60;;
68168;SDS011;54981;50.206;15.978;2023-05-09T09:54:28;11.18;;;8.90;;
68168;SDS011;54981;50.206;15.978;2023-05-09T09:57:00;9.90;;;8.93;;
68168;SDS011;54981;50.206;15.978;2023-05-09T09:59:30;12.85;;;9.68;;
68168;SDS011;54981;50.206;15.978;2023-05-09T10:02:02;10.55;;;9.23;;
68168;SDS011;54981;50.206;15.978;2023-05-09T10:04:34;9.60;;;8.50;;
68168;SDS011;54981;50.206;15.978;2023-05-09T10:07:07;10.05;;;9.05;;
68168;SDS011;54981;50.206;15.978;2023-05-09T10:09:39;9.88;;;8.88;;
68168;SDS011;54981;50.206;15.978;2023-05-09T10:12:10;8.88;;;7.97;;
68168;SDS011;54981;50.206;15.978;2023-05-09T10:14:41;10.43;;;9.00;;
68168;SDS011;54981;50.206;15.978;2023-05-09T10:17:12;10.15;;;9.15;;
68168;SDS011;54981;50.206;15.978;2023-05-09T10:19:44;13.45;;;8.05;;
68168;SDS011;54981;50.206;15.978;2023-05-09T10:22:16;8.63;;;7.70;;
68168;SDS011;54981;50.206;15.978;2023-05-09T10:24:55;11.02;;;7.43;;
68168;SDS011;54981;50.206;15.978;2023-05-09T10:30:08;9.77;;;7.85;;
68168;SDS011;54981;50.206;15.978;2023-05-09T10:32:52;9.63;;;8.73;;
68168;SDS011;54981;50.206;15.978;2023-05-09T10:35:25;11.80;;;7.60;;
68168;SDS011;54981;50.206;15.978;2023-05-09T10:37:59;8.43;;;7.22;;
68168;SDS011;54981;50.206;15.978;2023-05-09T10:40:30;13.50;;;7.70;;
68168;SDS011;54981;50.206;15.978;2023-05-09T10:43:04;10.05;;;9.05;;
68168;SDS011;54981;50.206;15.978;2023-05-09T10:45:34;14.38;;;8.13;;
68168;SDS011;54981;50.206;15.978;2023-05-09T10:48:05;9.90;;;8.07;;
68168;SDS011;54981;50.206;15.978;2023-05-09T10:50:38;10.20;;;8.00;;
68168;SDS011;54981;50.206;15.978;2023-05-09T10:53:09;11.60;;;8.13;;
68168;SDS011;54981;50.206;15.978;2023-05-09T10:55:54;11.10;;;8.13;;
68168;SDS011;54981;50.206;15.978;2023-05-09T10:58:28;10.65;;;8.18;;
68168;SDS011;54981;50.206;15.978;2023-05-09T11:01:03;8.65;;;7.60;;
68168;SDS011;54981;50.206;15.978;2023-05-09T11:03:53;9.77;;;8.27;;
68168;SDS011;54981;50.206;15.978;2023-05-09T11:09:27;9.07;;;8.07;;
68168;SDS011;54981;50.206;15.978;2023-05-09T11:22:26;8.97;;;8.07;;
68168;SDS011;54981;50.206;15.978;2023-05-09T11:25:01;9.68;;;7.13;;
68168;SDS011;54981;50.206;15.978;2023-05-09T11:30:15;10.55;;;7.35;;
68168;SDS011;54981;50.206;15.978;2023-05-09T11:32:50;11.23;;;7.60;;
68168;SDS011;54981;50.206;15.978;2023-05-09T11:35:23;9.23;;;7.95;;
68168;SDS011;54981;50.206;15.978;2023-05-09T11:38:02;11.57;;;7.35;;
68168;SDS011;54981;50.206;15.978;2023-05-09T11:40:36;12.45;;;8.35;;
68168;SDS011;54981;50.206;15.978;2023-05-09T11:43:08;8.93;;;7.75;;
68168;SDS011;54981;50.206;15.978;2023-05-09T11:45:39;8.82;;;7.93;;
68168;SDS011;54981;50.206;15.978;2023-05-09T11:48:10;16.45;;;7.55;;
68168;SDS011;54981;50.206;15.978;2023-05-09T11:50:40;9.75;;;7.95;;
68168;SDS011;54981;50.206;15.978;2023-05-09T11:53:10;8.25;;;7.43;;
68168;SDS011;54981;50.206;15.978;2023-05-09T11:55:41;8.10;;;6.97;;
68168;SDS011;54981;50.206;15.978;2023-05-09T11:58:11;7.38;;;6.55;;
68168;SDS011;54981;50.206;15.978;2023-05-09T12:00:43;9.55;;;6.78;;
68168;SDS011;54981;50.206;15.978;2023-05-09T12:03:14;10.85;;;7.20;;
68168;SDS011;54981;50.206;15.978;2023-05-09T12:05:46;9.60;;;7.05;;
68168;SDS011;54981;50.206;15.978;2023-05-09T12:08:17;8.00;;;6.45;;
68168;SDS011;54981;50.206;15.978;2023-05-09T12:10:47;10.50;;;7.07;;
68168;SDS011;54981;50.206;15.978;2023-05-09T12:13:18;7.72;;;6.88;;
68168;SDS011;54981;50.206;15.978;2023-05-09T12:15:48;8.73;;;7.93;;
68168;SDS011;54981;50.206;15.978;2023-05-09T12:18:19;7.90;;;7.10;;
68168;SDS011;54981;50.206;15.978;2023-05-09T12:20:50;8.95;;;7.00;;
68168;SDS011;54981;50.206;15.978;2023-05-09T12:23:20;11.50;;;6.47;;
68168;SDS011;54981;50.206;15.978;2023-05-09T12:25:54;9.90;;;7.05;;
68168;SDS011;54981;50.206;15.978;2023-05-09T12:28:25;10.13;;;7.65;;
68168;SDS011;54981;50.206;15.978;2023-05-09T12:30:56;8.52;;;7.60;;
68168;SDS011;54981;50.206;15.978;2023-05-09T12:33:27;9.30;;;6.88;;
68168;SDS011;54981;50.206;15.978;2023-05-09T12:38:32;8.00;;;7.18;;
68168;SDS011;54981;50.206;15.978;2023-05-09T12:41:04;7.65;;;6.68;;
68168;SDS011;54981;50.206;15.978;2023-05-09T12:43:36;8.87;;;6.17;;
68168;SDS011;54981;50.206;15.978;2023-05-09T12:46:10;8.15;;;7.20;;
68168;SDS011;54981;50.206;15.978;2023-05-09T12:48:43;8.32;;;7.53;;
68168;SDS011;54981;50.206;15.978;2023-05-09T12:51:17;8.40;;;7.20;;
68168;SDS011;54981;50.206;15.978;2023-05-09T12:53:51;9.65;;;7.20;;
68168;SDS011;54981;50.206;15.978;2023-05-09T12:56:21;9.00;;;7.88;;
68168;SDS011;54981;50.206;15.978;2023-05-09T12:58:53;8.27;;;6.45;;
68168;SDS011;54981;50.206;15.978;2023-05-09T13:01:27;7.43;;;6.57;;
68168;SDS011;54981;50.206;15.978;2023-05-09T13:04:02;10.27;;;7.25;;
68168;SDS011;54981;50.206;15.978;2023-05-09T13:06:33;10.63;;;7.00;;
68168;SDS011;54981;50.206;15.978;2023-05-09T13:09:05;11.75;;;7.60;;
68168;SDS011;54981;50.206;15.978;2023-05-09T13:11:35;10.57;;;7.05;;
68168;SDS011;54981;50.206;15.978;2023-05-09T13:14:07;9.85;;;8.48;;
68168;SDS011;54981;50.206;15.978;2023-05-09T13:16:37;10.45;;;7.07;;
68168;SDS011;54981;50.206;15.978;2023-05-09T13:19:08;12.20;;;7.15;;
68168;SDS011;54981;50.206;15.978;2023-05-09T13:21:39;10.77;;;6.75;;
68168;SDS011;54981;50.206;15.978;2023-05-09T13:24:09;8.20;;;7.38;;
68168;SDS011;54981;50.206;15.978;2023-05-09T13:26:40;8.90;;;7.03;;
68168;SDS011;54981;50.206;15.978;2023-05-09T13:29:10;9.40;;;7.65;;
68168;SDS011;54981;50.206;15.978;2023-05-09T13:31:40;9.43;;;7.43;;
68168;SDS011;54981;50.206;15.978;2023-05-09T13:34:10;9.35;;;8.00;;
68168;SDS011;54981;50.206;15.978;2023-05-09T13:36:41;9.40;;;7.45;;
68168;SDS011;54981;50.206;15.978;2023-05-09T13:39:11;9.52;;;7.68;;
68168;SDS011;54981;50.206;15.978;2023-05-09T13:41:42;8.45;;;7.55;;
68168;SDS011;54981;50.206;15.978;2023-05-09T13:44:13;8.52;;;7.28;;
68168;SDS011;54981;50.206;15.978;2023-05-09T13:46:44;9.07;;;6.88;;
68168;SDS011;54981;50.206;15.978;2023-05-09T13:49:14;12.40;;;8.32;;
68168;SDS011;54981;50.206;15.978;2023-05-09T13:51:45;11.25;;;7.38;;
68168;SDS011;54981;50.206;15.978;2023-05-09T13:54:15;8.18;;;6.80;;
68168;SDS011;54981;50.206;15.978;2023-05-09T13:56:48;9.80;;;6.43;;
68168;SDS011;54981;50.206;15.978;2023-05-09T13:59:20;8.32;;;6.95;;
68168;SDS011;54981;50.206;15.978;2023-05-09T14:01:50;8.32;;;6.68;;
68168;SDS011;54981;50.206;15.978;2023-05-09T14:04:20;9.50;;;7.03;;
68168;SDS011;54981;50.206;15.978;2023-05-09T14:06:51;13.77;;;6.72;;
68168;SDS011;54981;50.206;15.978;2023-05-09T14:09:22;7.53;;;6.72;;
68168;SDS011;54981;50.206;15.978;2023-05-09T14:11:53;8.98;;;7.15;;
68168;SDS011;54981;50.206;15.978;2023-05-09T14:14:24;8.15;;;6.65;;
68168;SDS011;54981;50.206;15.978;2023-05-09T14:16:54;10.32;;;6.88;;
68168;SDS011;54981;50.206;15.978;2023-05-09T14:19:25;7.70;;;6.90;;
68168;SDS011;54981;50.206;15.978;2023-05-09T14:21:57;9.13;;;6.70;;
68168;SDS011;54981;50.206;15.978;2023-05-09T14:24:27;9.23;;;7.55;;
68168;SDS011;54981;50.206;15.978;2023-05-09T14:26:59;9.30;;;8.25;;
68168;SDS011;54981;50.206;15.978;2023-05-09T14:29:30;11.40;;;7.20;;
68168;SDS011;54981;50.206;15.978;2023-05-09T14:32:01;9.07;;;6.50;;
68168;SDS011;54981;50.206;15.978;2023-05-09T14:34:31;8.02;;;6.75;;
68168;SDS011;54981;50.206;15.978;2023-05-09T14:37:02;7.65;;;6.28;;
68168;SDS011;54981;50.206;15.978;2023-05-09T14:39:32;8.25;;;6.93;;
68168;SDS011;54981;50.206;15.978;2023-05-09T14:42:02;20.65;;;8.98;;
68168;SDS011;54981;50.206;15.978;2023-05-09T14:44:36;8.55;;;7.18;;
68168;SDS011;54981;50.206;15.978;2023-05-09T14:47:07;9.05;;;6.38;;
68168;SDS011;54981;50.206;15.978;2023-05-09T14:49:38;8.80;;;7.72;;
68168;SDS011;54981;50.206;15.978;2023-05-09T14:52:09;8.77;;;7.78;;
68168;SDS011;54981;50.206;15.978;2023-05-09T14:54:39;8.90;;;7.75;;
68168;SDS011;54981;50.206;15.978;2023-05-09T14:57:10;9.00;;;7.25;;
68168;SDS011;54981;50.206;15.978;2023-05-09T14:59:41;8.93;;;7.80;;
68168;SDS011;54981;50.206;15.978;2023-05-09T15:02:11;8.05;;;7.15;;
68168;SDS011;54981;50.206;15.978;2023-05-09T15:04:42;8.95;;;8.05;;
68168;SDS011;54981;50.206;15.978;2023-05-09T15:07:13;7.90;;;7.10;;
68168;SDS011;54981;50.206;15.978;2023-05-09T15:09:44;11.18;;;7.50;;
68168;SDS011;54981;50.206;15.978;2023-05-09T15:12:14;8.38;;;7.53;;
68168;SDS011;54981;50.206;15.978;2023-05-09T15:14:45;12.32;;;7.40;;
68168;SDS011;54981;50.206;15.978;2023-05-09T15:17:15;8.20;;;6.70;;
68168;SDS011;54981;50.206;15.978;2023-05-09T15:19:46;13.43;;;6.72;;
68168;SDS011;54981;50.206;15.978;2023-05-09T15:22:16;7.85;;;6.63;;